sensor_id;sensor_type;location;lat;lon;timestamp;pressure;altitude;pressure_sealevel;temperature;humidity
44697;BME280;57264;47.480;19.354;2023-03-16T19:53:00;99879.63;;;11.90;93.53
44697;BME280;57264;47.480;19.354;2023-03-16T20:15:13;99910.50;;;2.37;46.71
44697;BME280;57264;47.480;19.354;2023-03-16T20:47:24;99942.03;;;1.64;47.87
44697;BME280;57264;47.480;19.354;2023-03-16T20:49:51;99933.66;;;1.51;48.27
44697;BME280;57264;47.480;19.354;2023-03-16T20:52:19;99930.91;;;1.42;48.67
44697;BME280;57264;47.480;19.354;2023-03-16T20:54:46;99949.28;;;1.39;48.70
44697;BME280;57264;47.480;19.354;2023-03-16T20:57:18;99938.13;;;1.49;48.05
44697;BME280;57264;47.480;19.354;2023-03-16T20:59:46;99939.78;;;1.50;47.79
44697;BME280;57264;47.480;19.354;2023-03-16T21:02:33;99943.97;;;1.41;47.91
44697;BME280;57264;47.480;19.354;2023-03-16T21:05:01;99946.00;;;1.37;47.87
44697;BME280;57264;47.480;19.354;2023-03-16T21:07:28;99944.34;;;1.36;48.22
44697;BME280;57264;47.480;19.354;2023-03-16T21:09:54;99947.53;;;1.40;48.15
44697;BME280;57264;47.480;19.354;2023-03-16T21:12:29;99942.63;;;1.47;47.07
44697;BME280;57264;47.480;19.354;2023-03-16T21:14:57;99951.38;;;1.55;46.35
44697;BME280;57264;47.480;19.354;2023-03-16T21:17:29;99950.72;;;1.63;46.22
44697;BME280;57264;47.480;19.354;2023-03-16T21:19:56;99953.47;;;1.71;45.52
44697;BME280;57264;47.480;19.354;2023-03-16T21:22:25;99943.03;;;1.82;45.41
44697;BME280;57264;47.480;19.354;2023-03-16T21:24:52;99951.72;;;1.81;45.51
44697;BME280;57264;47.480;19.354;2023-03-16T21:27:24;99953.81;;;1.97;45.10
44697;BME280;57264;47.480;19.354;2023-03-16T21:29:55;99950.28;;;1.88;45.33
44697;BME280;57264;47.480;19.354;2023-03-16T21:32:25;99953.97;;;1.95;44.67
44697;BME280;57264;47.480;19.354;2023-03-16T21:34:51;99958.72;;;1.90;45.46
44697;BME280;57264;47.480;19.354;2023-03-16T21:37:20;99962.66;;;1.94;45.24
44697;BME280;57264;47.480;19.354;2023-03-16T21:39:46;99970.88;;;1.99;45.16
44697;BME280;57264;47.480;19.354;2023-03-16T21:42:13;99958.47;;;2.03;44.68
44697;BME280;57264;47.480;19.354;2023-03-16T21:44:38;99966.19;;;1.93;44.66
44697;BME280;57264;47.480;19.354;2023-03-16T21:47:25;99961.44;;;1.98;44.67
44697;BME280;57264;47.480;19.354;2023-03-16T21:49:52;99966.50;;;2.09;44.02
44697;BME280;57264;47.480;19.354;2023-03-16T21:52:23;99961.88;;;2.13;44.40
44697;BME280;57264;47.480;19.354;2023-03-16T21:54:51;99963.09;;;2.09;44.49
44697;BME280;57264;47.480;19.354;2023-03-16T21:57:17;99957.53;;;2.04;44.34
44697;BME280;57264;47.480;19.354;2023-03-16T21:59:44;99959.72;;;2.08;43.96
44697;BME280;57264;47.480;19.354;2023-03-16T22:02:23;99969.81;;;2.11;44.23
44697;BME280;57264;47.480;19.354;2023-03-16T22:04:50;99970.59;;;2.02;44.62
44697;BME280;57264;47.480;19.354;2023-03-16T22:07:17;99965.69;;;2.09;44.21
44697;BME280;57264;47.480;19.354;2023-03-16T22:09:44;99966.78;;;2.06;44.46
44697;BME280;57264;47.480;19.354;2023-03-16T22:12:11;99966.09;;;1.95;44.62
44697;BME280;57264;47.480;19.354;2023-03-16T22:14:37;99962.16;;;2.00;44.47
44697;BME280;57264;47.480;19.354;2023-03-16T22:17:03;99964.81;;;1.89;45.06
44697;BME280;57264;47.480;19.354;2023-03-16T22:19:30;99963.88;;;1.90;44.93
44697;BME280;57264;47.480;19.354;2023-03-16T22:21:55;99962.13;;;1.91;44.77
44697;BME280;57264;47.480;19.354;2023-03-16T22:24:25;99968.25;;;1.89;44.89
44697;BME280;57264;47.480;19.354;2023-03-16T22:26:51;99973.13;;;1.83;44.53
44697;BME280;57264;47.480;19.354;2023-03-16T22:29:29;99967.72;;;1.96;44.15
44697;BME280;57264;47.480;19.354;2023-03-16T22:32:01;99962.41;;;1.97;44.27
44697;BME280;57264;47.480;19.354;2023-03-16T22:34:32;99957.81;;;2.20;42.69
44697;BME280;57264;47.480;19.354;2023-03-16T22:37:01;99966.00;;;2.15;43.24
44697;BME280;57264;47.480;19.354;2023-03-16T22:39:30;99965.03;;;2.07;43.59
44697;BME280;57264;47.480;19.354;2023-03-16T22:41:58;99965.97;;;2.06;43.50
44697;BME280;57264;47.480;19.354;2023-03-16T22:44:24;99960.94;;;2.14;43.67
44697;BME280;57264;47.480;19.354;2023-03-16T22:49:34;99963.53;;;2.14;43.18
44697;BME280;57264;47.480;19.354;2023-03-16T22:51:59;99965.03;;;2.07;43.75
44697;BME280;57264;47.480;19.354;2023-03-16T22:54:27;99968.56;;;1.96;43.86
44697;BME280;57264;47.480;19.354;2023-03-16T22:56:53;99963.09;;;2.09;43.11
44697;BME280;57264;47.480;19.354;2023-03-16T22:59:21;99982.03;;;2.09;42.92
44697;BME280;57264;47.480;19.354;2023-03-16T23:01:49;99974.81;;;2.03;43.50
44697;BME280;57264;47.480;19.354;2023-03-16T23:04:17;99974.13;;;1.92;44.41
44697;BME280;57264;47.480;19.354;2023-03-16T23:06:45;99975.28;;;1.78;44.32
44697;BME280;57264;47.480;19.354;2023-03-16T23:09:15;99976.41;;;1.85;44.29
44697;BME280;57264;47.480;19.354;2023-03-16T23:11:42;99977.63;;;1.81;44.54
44697;BME280;57264;47.480;19.354;2023-03-16T23:14:12;99978.16;;;1.75;44.68
44697;BME280;57264;47.480;19.354;2023-03-16T23:16:39;99969.56;;;1.74;44.18
44697;BME280;57264;47.480;19.354;2023-03-16T23:19:32;99992.03;;;1.74;44.17
44697;BME280;57264;47.480;19.354;2023-03-16T23:22:03;99983.59;;;1.81;44.03
44697;BME280;57264;47.480;19.354;2023-03-16T23:24:31;99972.72;;;1.78;44.17
44697;BME280;57264;47.480;19.354;2023-03-16T23:26:57;99983.44;;;1.73;44.23
44697;BME280;57264;47.480;19.354;2023-03-16T23:29:23;99978.97;;;1.75;44.39
44697;BME280;57264;47.480;19.354;2023-03-16T23:31:49;99985.19;;;1.63;44.55
44697;BME280;57264;47.480;19.354;2023-03-16T23:34:18;99987.22;;;1.60;44.77
44697;BME280;57264;47.480;19.354;2023-03-16T23:36:44;99988.84;;;1.61;44.80
44697;BME280;57264;47.480;19.354;2023-03-16T23:39:10;99994.00;;;1.61;44.96
44697;BME280;57264;47.480;19.354;2023-03-16T23:41:37;99997.56;;;1.60;44.54
44697;BME280;57264;47.480;19.354;2023-03-16T23:44:04;99998.25;;;1.62;44.57
44697;BME280;57264;47.480;19.354;2023-03-16T23:46:32;100000.81;;;1.52;44.41
44697;BME280;57264;47.480;19.354;2023-03-16T23:49:00;100005.03;;;1.32;45.76
44697;BME280;57264;47.480;19.354;2023-03-16T23:51:30;99999.19;;;1.30;45.46
44697;BME280;57264;47.480;19.354;2023-03-16T23:53:59;100007.88;;;1.29;45.35
44697;BME280;57264;47.480;19.354;2023-03-16T23:56:25;100008.16;;;1.26;45.38
44697;BME280;57264;47.480;19.354;2023-03-16T23:58:52;100002.13;;;1.16;45.43
